Current Weather

Batten Intl

Racine, Wisconsin (KRAC)

Report from: Friday, April 19, 2024 3:53 AM CDT
Current time: Friday, April 19, 2024 5:02 AM CDT

Nearby weather – Weather history – Daily summaries
Weather forecast

Temperature6.7°C (44.1°F)
Wind chill3.6°C (38.5°F)
Dew point-0.6°C (30.9°F)
Winds 9 kts (4.6 m/s, 10.4 mph) Northwest (310°)
Visibility10 mi. (16.1 km)
Clouds Sky clear
Altimeter30.05 in.Hg (1018 mB)
Relative humidity60 %
Density altitude-1,061 ft. (-323 m)
Sea-level pressure101.8 kPa (1018 mB, 30.05 in.Hg)
Remarks Fully automated report
Automated weather observing station with precipitation discriminator
Pressure rising more quickly
Flight conditions Visual Meteorological Conditions
Raw dataKRAC 190853Z AUTO 31009KT 10SM CLR 07/M01 A3005 RMK AO2 SLP177 T00671006 53013
An error has occurred. This application may no longer respond until reloaded. Reload 🗙